createdAt,value
2018-03-06T00:00:07.533Z,3.92
2018-03-06T00:00:56.355Z,3.76
2018-03-06T00:01:45.659Z,3.71
2018-03-06T00:02:34.718Z,3.67
2018-03-06T00:03:23.953Z,3.67
2018-03-06T00:04:13.009Z,3.70
2018-03-06T00:05:02.277Z,3.77
2018-03-06T00:05:51.346Z,3.82
2018-03-06T00:06:40.418Z,3.80
2018-03-06T00:07:29.586Z,3.79
2018-03-06T00:08:18.644Z,3.68
2018-03-06T00:09:07.777Z,3.67
2018-03-06T00:09:56.846Z,3.72
2018-03-06T00:10:45.910Z,3.73
2018-03-06T00:11:34.987Z,3.85
2018-03-06T00:12:24.051Z,3.95
2018-03-06T00:13:14.063Z,3.93
2018-03-06T00:14:03.269Z,3.87
2018-03-06T00:14:52.428Z,3.79
2018-03-06T00:15:41.518Z,3.79
2018-03-06T00:16:30.590Z,3.77
2018-03-06T00:17:19.644Z,3.85
2018-03-06T00:18:08.731Z,3.86
2018-03-06T00:18:57.789Z,3.81
2018-03-06T00:19:46.962Z,3.82
2018-03-06T00:20:36.206Z,3.85
2018-03-06T00:21:25.260Z,3.88
2018-03-06T00:22:14.321Z,3.87
2018-03-06T00:23:03.414Z,3.87
2018-03-06T00:23:52.481Z,3.89
2018-03-06T00:24:41.533Z,3.89
2018-03-06T00:25:30.636Z,3.89
2018-03-06T00:26:19.700Z,3.88
2018-03-06T00:27:08.769Z,3.87
2018-03-06T00:27:57.822Z,4.00
2018-03-06T00:28:47.040Z,3.95
2018-03-06T00:29:36.091Z,3.91
2018-03-06T00:30:25.145Z,3.92
2018-03-06T00:31:14.341Z,3.85
2018-03-06T00:32:03.399Z,3.83
2018-03-06T00:32:52.498Z,3.88
2018-03-06T00:33:41.554Z,3.89
2018-03-06T00:34:30.657Z,3.85
2018-03-06T00:35:19.720Z,3.90
2018-03-06T00:36:08.797Z,3.96
2018-03-06T00:36:57.849Z,3.99
2018-03-06T00:37:46.901Z,3.94
2018-03-06T00:38:36.025Z,3.87
2018-03-06T00:39:25.069Z,3.83
2018-03-06T00:40:14.262Z,3.66
2018-03-06T00:41:03.338Z,3.59
2018-03-06T00:41:52.494Z,3.54
2018-03-06T00:42:41.575Z,3.59
2018-03-06T00:43:30.652Z,3.54
2018-03-06T00:44:19.813Z,3.62
2018-03-06T00:45:08.920Z,3.54
2018-03-06T00:45:57.973Z,3.64
2018-03-06T00:46:47.022Z,3.80
2018-03-06T00:47:36.084Z,3.75
2018-03-06T00:48:25.129Z,3.80
2018-03-06T00:49:14.258Z,3.82
2018-03-06T00:50:03.360Z,3.76
2018-03-06T00:50:52.434Z,3.68
2018-03-06T00:51:41.498Z,3.49
2018-03-06T00:52:30.552Z,3.37
2018-03-06T00:53:19.606Z,3.37
2018-03-06T00:54:08.656Z,3.41
2018-03-06T00:54:57.856Z,3.44
2018-03-06T00:55:47.041Z,3.40
2018-03-06T00:56:36.146Z,3.41
2018-03-06T00:57:25.204Z,3.46
2018-03-06T00:58:14.269Z,3.51
2018-03-06T00:59:03.319Z,3.51
2018-03-06T00:59:53.315Z,3.50
2018-03-06T01:00:42.374Z,3.55
2018-03-06T01:01:31.548Z,3.70
2018-03-06T01:02:20.608Z,3.89
2018-03-06T01:03:09.685Z,3.91
2018-03-06T01:03:58.740Z,3.87
2018-03-06T01:04:47.962Z,3.83
2018-03-06T01:05:37.025Z,3.77
2018-03-06T01:06:26.090Z,3.74
2018-03-06T01:07:15.206Z,3.80
2018-03-06T01:08:04.257Z,3.82
2018-03-06T01:08:53.313Z,3.80
2018-03-06T01:09:42.570Z,3.79
2018-03-06T01:10:31.624Z,3.65
2018-03-06T01:11:23.803Z,3.47
2018-03-06T01:12:12.874Z,3.29
2018-03-06T01:13:01.935Z,3.22
2018-03-06T01:13:50.984Z,3.20
2018-03-06T01:14:40.187Z,3.31
2018-03-06T01:15:29.235Z,3.37
2018-03-06T01:16:18.299Z,3.31
2018-03-06T01:17:07.476Z,3.26
2018-03-06T01:17:56.529Z,3.25
2018-03-06T01:18:45.698Z,3.24
2018-03-06T01:19:34.758Z,3.24
2018-03-06T01:20:23.846Z,3.26
2018-03-06T01:21:12.869Z,3.27
2018-03-06T01:22:02.006Z,3.29
2018-03-06T01:22:51.139Z,3.32
2018-03-06T01:23:40.310Z,3.36
2018-03-06T01:24:29.364Z,3.40
2018-03-06T01:25:18.616Z,3.40
2018-03-06T01:26:07.674Z,3.41
2018-03-06T01:26:56.751Z,3.47
2018-03-06T01:27:45.801Z,3.46
2018-03-06T01:28:34.889Z,3.44
2018-03-06T01:29:24.206Z,3.51
2018-03-06T01:30:13.259Z,3.58
2018-03-06T01:31:02.305Z,3.60
2018-03-06T01:31:51.374Z,3.58
2018-03-06T01:32:40.457Z,3.59
2018-03-06T01:33:29.493Z,3.55
2018-03-06T01:34:18.650Z,3.53
2018-03-06T01:35:07.702Z,3.60
2018-03-06T01:35:56.752Z,3.60
2018-03-06T01:36:45.827Z,3.57
2018-03-06T01:37:34.915Z,3.40
2018-03-06T01:38:24.000Z,3.29
2018-03-06T01:39:13.100Z,3.20
2018-03-06T01:40:02.202Z,3.13
2018-03-06T01:40:51.259Z,3.15
2018-03-06T01:41:40.432Z,3.19
2018-03-06T01:42:29.482Z,3.16
2018-03-06T01:43:21.137Z,3.17
2018-03-06T01:44:10.214Z,3.25
2018-03-06T01:44:59.414Z,3.30
2018-03-06T01:45:48.494Z,3.38
2018-03-06T01:46:37.694Z,3.41
2018-03-06T01:47:26.739Z,3.43
2018-03-06T01:48:15.788Z,3.41
2018-03-06T01:49:04.831Z,3.38
2018-03-06T01:49:53.936Z,3.39
2018-03-06T01:50:42.987Z,3.37
2018-03-06T01:51:43.849Z,3.35
2018-03-06T01:52:32.899Z,3.37
2018-03-06T01:53:22.582Z,3.40
2018-03-06T01:54:11.644Z,3.37
2018-03-06T01:55:00.692Z,3.25
2018-03-06T01:55:49.736Z,3.26
2018-03-06T01:56:38.782Z,3.20
2018-03-06T01:57:27.873Z,3.13
2018-03-06T01:58:16.989Z,3.11
2018-03-06T01:59:06.042Z,3.09
2018-03-06T01:59:55.122Z,3.14
2018-03-06T02:00:44.170Z,3.12
2018-03-06T02:01:33.260Z,3.21
2018-03-06T02:02:22.320Z,3.17
2018-03-06T02:03:11.405Z,3.13
2018-03-06T02:04:00.458Z,3.11
2018-03-06T02:04:49.498Z,3.06
2018-03-06T02:05:38.714Z,3.14
2018-03-06T02:06:27.777Z,3.14
2018-03-06T02:07:16.968Z,3.09
2018-03-06T02:08:09.533Z,2.99
2018-03-06T02:08:58.916Z,3.01
2018-03-06T02:09:48.209Z,3.12
2018-03-06T02:10:37.291Z,3.19
2018-03-06T02:11:26.480Z,3.19
2018-03-06T02:12:15.637Z,3.21
2018-03-06T02:13:07.114Z,3.25
2018-03-06T02:13:56.169Z,3.22
2018-03-06T02:14:45.287Z,3.17
2018-03-06T02:15:34.296Z,3.20
2018-03-06T02:16:23.381Z,3.32
2018-03-06T02:17:12.438Z,3.30
2018-03-06T02:18:01.606Z,3.38
2018-03-06T02:18:50.648Z,3.39
2018-03-06T02:19:39.690Z,3.35
2018-03-06T02:20:28.750Z,3.31
2018-03-06T02:21:17.810Z,3.35
2018-03-06T02:22:06.906Z,3.31
2018-03-06T02:22:55.974Z,3.34
2018-03-06T02:23:45.062Z,3.41
2018-03-06T02:24:34.120Z,3.44
2018-03-06T02:25:23.177Z,3.51
2018-03-06T02:26:12.425Z,3.54
2018-03-06T02:27:01.466Z,3.52
2018-03-06T02:27:50.503Z,3.49
2018-03-06T02:28:39.558Z,3.52
2018-03-06T02:29:28.878Z,3.48
2018-03-06T02:30:17.939Z,3.48
2018-03-06T02:31:07.154Z,3.48
2018-03-06T02:31:56.200Z,3.50
2018-03-06T02:32:45.252Z,3.54
2018-03-06T02:33:34.301Z,3.56
2018-03-06T02:34:23.371Z,3.56
2018-03-06T02:35:12.525Z,3.59
2018-03-06T02:36:01.692Z,3.56
2018-03-06T02:36:50.757Z,3.60
2018-03-06T02:37:40.015Z,3.64
2018-03-06T02:38:29.158Z,3.61
2018-03-06T02:39:18.202Z,3.61
2018-03-06T02:40:07.362Z,3.56
2018-03-06T02:40:56.413Z,3.52
2018-03-06T02:41:45.464Z,3.53
2018-03-06T02:42:34.623Z,3.53
2018-03-06T02:43:24.307Z,3.54
2018-03-06T02:44:13.362Z,3.51
2018-03-06T02:45:02.399Z,3.55
2018-03-06T02:45:51.666Z,3.57
2018-03-06T02:46:40.722Z,3.60
2018-03-06T02:47:29.841Z,3.63
2018-03-06T02:48:18.886Z,3.66
2018-03-06T02:49:07.936Z,3.62
2018-03-06T02:49:56.995Z,3.56
2018-03-06T02:50:46.140Z,3.55
2018-03-06T02:51:35.223Z,3.46
2018-03-06T02:52:24.414Z,3.42
2018-03-06T02:53:13.466Z,3.39
2018-03-06T02:54:02.520Z,3.42
2018-03-06T02:54:51.601Z,3.50
2018-03-06T02:55:40.748Z,3.53
2018-03-06T02:56:29.804Z,3.67
2018-03-06T02:57:19.094Z,3.76
2018-03-06T02:58:08.145Z,3.56
2018-03-06T02:58:57.476Z,3.45
2018-03-06T02:59:46.516Z,3.37
2018-03-06T03:00:35.570Z,3.32
2018-03-06T03:01:24.623Z,3.22
2018-03-06T03:02:13.785Z,3.16
2018-03-06T03:03:02.934Z,3.22
2018-03-06T03:03:51.975Z,3.28
2018-03-06T03:04:41.088Z,3.26
2018-03-06T03:05:30.146Z,3.38
2018-03-06T03:06:19.194Z,3.51
2018-03-06T03:07:08.275Z,3.51
2018-03-06T03:07:57.318Z,3.42
2018-03-06T03:08:46.705Z,3.45
2018-03-06T03:09:35.772Z,3.42
2018-03-06T03:10:24.877Z,3.41
2018-03-06T03:11:13.958Z,3.26
2018-03-06T03:12:03.183Z,3.16
2018-03-06T03:12:52.278Z,3.12
2018-03-06T03:13:41.329Z,3.10
2018-03-06T03:14:30.582Z,3.11
2018-03-06T03:15:19.633Z,3.18
2018-03-06T03:16:08.678Z,3.17
2018-03-06T03:16:57.801Z,3.23
2018-03-06T03:17:46.942Z,3.19
2018-03-06T03:18:36.030Z,3.24
2018-03-06T03:19:25.084Z,3.26
2018-03-06T03:20:14.147Z,3.22
2018-03-06T03:21:03.200Z,3.20
2018-03-06T03:21:52.236Z,3.16
2018-03-06T03:22:43.267Z,3.10
2018-03-06T03:23:32.314Z,3.02
2018-03-06T03:24:21.354Z,2.88
2018-03-06T03:25:10.402Z,2.79
2018-03-06T03:25:59.451Z,2.66
2018-03-06T03:26:48.546Z,2.67
2018-03-06T03:27:37.608Z,2.85
2018-03-06T03:28:27.170Z,2.98
2018-03-06T03:29:16.215Z,3.00
2018-03-06T03:30:05.468Z,3.00
2018-03-06T03:30:54.513Z,2.98
2018-03-06T03:31:43.814Z,3.07
2018-03-06T03:32:32.855Z,3.17
2018-03-06T03:33:21.949Z,3.29
2018-03-06T03:34:10.991Z,3.35
2018-03-06T03:35:00.039Z,3.43
2018-03-06T03:35:49.129Z,3.37
2018-03-06T03:36:38.232Z,3.35
2018-03-06T03:37:27.281Z,3.31
2018-03-06T03:38:16.381Z,3.32
2018-03-06T03:39:05.645Z,3.31
2018-03-06T03:39:54.704Z,3.32
2018-03-06T03:40:43.740Z,3.34
2018-03-06T03:41:32.797Z,3.36
2018-03-06T03:42:21.887Z,3.38
2018-03-06T03:43:10.964Z,3.38
2018-03-06T03:44:00.008Z,3.37
2018-03-06T03:44:49.092Z,3.37
2018-03-06T03:45:38.142Z,3.38
2018-03-06T03:46:27.182Z,3.39
2018-03-06T03:47:16.239Z,3.35
2018-03-06T03:48:05.288Z,3.41
2018-03-06T03:48:54.328Z,3.41
2018-03-06T03:49:43.497Z,3.58
2018-03-06T03:50:32.579Z,3.60
2018-03-06T03:51:21.630Z,3.60
2018-03-06T03:52:10.738Z,3.66
2018-03-06T03:53:02.864Z,3.70
2018-03-06T03:53:52.108Z,3.63
2018-03-06T03:54:41.171Z,3.63
2018-03-06T03:55:30.221Z,3.66
2018-03-06T03:56:19.737Z,3.66
2018-03-06T03:57:08.784Z,3.60
2018-03-06T03:57:57.845Z,3.58
2018-03-06T03:58:46.897Z,3.59
2018-03-06T03:59:35.927Z,3.56
2018-03-06T04:00:24.981Z,3.61
2018-03-06T04:01:14.072Z,3.65
2018-03-06T04:02:03.162Z,3.65
2018-03-06T04:02:52.207Z,3.64
2018-03-06T04:03:41.332Z,3.66
2018-03-06T04:04:30.494Z,3.62
2018-03-06T04:05:19.536Z,3.66
2018-03-06T04:06:08.591Z,3.70
2018-03-06T04:06:57.651Z,3.71
2018-03-06T04:07:46.822Z,3.68
2018-03-06T04:08:35.871Z,3.66
2018-03-06T04:09:28.106Z,3.62
2018-03-06T04:10:17.154Z,3.49
2018-03-06T04:11:06.211Z,3.49
2018-03-06T04:11:55.293Z,3.48
2018-03-06T04:12:44.342Z,3.42
2018-03-06T04:13:33.554Z,3.43
2018-03-06T04:14:22.597Z,3.45
2018-03-06T04:15:11.972Z,3.47
2018-03-06T04:16:01.030Z,3.47
2018-03-06T04:16:50.111Z,3.55
2018-03-06T04:17:39.155Z,3.58
2018-03-06T04:18:28.238Z,3.71
2018-03-06T04:19:17.287Z,3.57
2018-03-06T04:20:06.533Z,3.44
2018-03-06T04:20:55.661Z,3.45
2018-03-06T04:21:45.284Z,3.51
2018-03-06T04:22:34.327Z,3.37
2018-03-06T04:23:23.380Z,3.41
2018-03-06T04:24:12.445Z,3.37
2018-03-06T04:25:01.495Z,3.32
2018-03-06T04:25:50.592Z,3.21
2018-03-06T04:26:39.675Z,3.13
2018-03-06T04:27:28.722Z,3.10
2018-03-06T04:28:17.775Z,3.10
2018-03-06T04:29:06.820Z,3.23
2018-03-06T04:29:56.050Z,3.20
2018-03-06T04:30:45.103Z,3.15
2018-03-06T04:31:34.154Z,3.15
2018-03-06T04:32:23.323Z,3.18
2018-03-06T04:33:12.354Z,3.23
2018-03-06T04:34:01.509Z,3.29
2018-03-06T04:34:50.566Z,3.28
2018-03-06T04:35:39.620Z,3.26
2018-03-06T04:36:28.667Z,3.26
2018-03-06T04:37:17.714Z,3.30
2018-03-06T04:38:06.878Z,3.29
2018-03-06T04:38:55.923Z,3.27
2018-03-06T04:39:45.219Z,3.33
2018-03-06T04:40:34.442Z,3.38
2018-03-06T04:41:23.496Z,3.41
2018-03-06T04:42:12.556Z,3.44
2018-03-06T04:43:01.611Z,3.49
2018-03-06T04:43:50.759Z,3.56
2018-03-06T04:44:39.807Z,3.63
2018-03-06T04:45:28.846Z,3.58
2018-03-06T04:46:17.917Z,3.56
2018-03-06T04:47:07.032Z,3.51
2018-03-06T04:47:56.073Z,3.51
2018-03-06T04:48:45.334Z,3.56
2018-03-06T04:49:37.510Z,3.58
2018-03-06T04:50:26.577Z,3.63
2018-03-06T04:51:15.626Z,3.53
2018-03-06T04:52:04.709Z,3.42
2018-03-06T04:52:53.766Z,3.35
2018-03-06T04:53:42.822Z,3.27
2018-03-06T04:54:31.885Z,3.31
2018-03-06T04:55:20.978Z,3.56
2018-03-06T04:56:10.043Z,3.59
2018-03-06T04:56:59.125Z,3.41
2018-03-06T04:57:48.176Z,3.29
2018-03-06T04:58:37.334Z,3.25
2018-03-06T04:59:26.395Z,3.29
2018-03-06T05:00:15.445Z,3.32
2018-03-06T05:01:04.606Z,3.34
2018-03-06T05:01:53.661Z,3.35
2018-03-06T05:02:42.729Z,3.42
2018-03-06T05:03:31.779Z,3.37
2018-03-06T05:04:20.839Z,3.38
2018-03-06T05:05:09.909Z,3.36
2018-03-06T05:05:58.965Z,3.35
2018-03-06T05:06:48.133Z,3.38
2018-03-06T05:07:37.826Z,3.38
2018-03-06T05:08:26.877Z,3.37
2018-03-06T05:09:15.929Z,3.41
2018-03-06T05:10:04.976Z,3.36
2018-03-06T05:10:54.027Z,3.31
2018-03-06T05:11:43.114Z,3.40
2018-03-06T05:12:32.167Z,3.47
2018-03-06T05:13:21.213Z,3.52
2018-03-06T05:14:10.294Z,3.46
2018-03-06T05:14:59.342Z,3.49
2018-03-06T05:15:48.397Z,3.52
2018-03-06T05:16:37.550Z,3.56
2018-03-06T05:17:26.653Z,3.54
2018-03-06T05:18:15.698Z,3.58
2018-03-06T05:19:04.751Z,3.56
2018-03-06T05:19:53.802Z,3.60
2018-03-06T05:20:42.847Z,3.59
2018-03-06T05:21:32.006Z,3.57
2018-03-06T05:22:21.086Z,3.60
2018-03-06T05:23:10.145Z,3.59
2018-03-06T05:23:59.210Z,3.65
2018-03-06T05:24:48.268Z,3.74
2018-03-06T05:25:37.326Z,3.74
2018-03-06T05:26:26.382Z,3.74
2018-03-06T05:27:15.471Z,3.75
2018-03-06T05:28:04.526Z,3.79
2018-03-06T05:28:53.570Z,3.73
2018-03-06T05:29:42.632Z,3.69
2018-03-06T05:30:31.846Z,3.65
2018-03-06T05:31:20.890Z,3.61
2018-03-06T05:32:09.942Z,3.56
2018-03-06T05:32:59.019Z,3.46
2018-03-06T05:33:48.065Z,3.42
2018-03-06T05:34:37.272Z,3.48
2018-03-06T05:35:26.450Z,3.51
2018-03-06T05:36:15.569Z,3.51
2018-03-06T05:37:04.632Z,3.54
2018-03-06T05:37:53.675Z,3.59
2018-03-06T05:38:42.878Z,3.63
2018-03-06T05:39:31.941Z,3.67
2018-03-06T05:40:21.023Z,3.63
2018-03-06T05:41:10.152Z,3.62
2018-03-06T05:41:59.218Z,3.62
2018-03-06T05:42:48.360Z,3.68
2018-03-06T05:43:37.434Z,3.71
2018-03-06T05:44:26.486Z,3.71
2018-03-06T05:45:15.563Z,3.75
2018-03-06T05:46:04.782Z,3.76
2018-03-06T05:46:53.842Z,3.83
2018-03-06T05:47:42.895Z,3.86
2018-03-06T05:48:32.006Z,3.86
2018-03-06T05:49:21.067Z,3.91
2018-03-06T05:50:10.186Z,3.87
2018-03-06T05:50:59.222Z,3.79
2018-03-06T05:51:48.278Z,3.88
2018-03-06T05:52:37.390Z,3.82
2018-03-06T05:53:26.487Z,3.83
2018-03-06T05:54:15.765Z,3.78
2018-03-06T05:55:04.831Z,3.76
2018-03-06T05:55:53.894Z,3.98
2018-03-06T05:56:42.965Z,4.05
2018-03-06T05:57:32.034Z,4.00
2018-03-06T05:58:21.167Z,4.06
2018-03-06T05:59:11.482Z,4.09
2018-03-06T06:00:00.687Z,4.04
2018-03-06T06:00:50.538Z,3.93
2018-03-06T06:01:39.606Z,3.94
2018-03-06T06:02:28.767Z,3.83
2018-03-06T06:03:17.865Z,3.80
2018-03-06T06:04:07.029Z,3.78
2018-03-06T06:04:56.094Z,3.92
2018-03-06T06:05:45.160Z,3.92
2018-03-06T06:06:34.217Z,3.95
2018-03-06T06:07:23.537Z,3.98
2018-03-06T06:08:12.598Z,4.01
2018-03-06T06:09:01.677Z,3.94
2018-03-06T06:09:50.821Z,3.81
2018-03-06T06:10:39.889Z,3.70
2018-03-06T06:11:29.126Z,3.43
2018-03-06T06:12:18.228Z,3.29
2018-03-06T06:13:07.335Z,3.28
2018-03-06T06:13:56.398Z,3.46
2018-03-06T06:14:45.442Z,3.50
2018-03-06T06:15:34.510Z,3.66
2018-03-06T06:16:23.552Z,3.77
2018-03-06T06:17:12.602Z,3.90
2018-03-06T06:18:01.648Z,3.95
2018-03-06T06:18:50.685Z,4.01
2018-03-06T06:19:39.723Z,4.07
2018-03-06T06:20:28.764Z,4.13
2018-03-06T06:21:17.945Z,4.10
2018-03-06T06:22:06.981Z,4.10
2018-03-06T06:22:56.021Z,4.14
2018-03-06T06:23:45.117Z,4.25
2018-03-06T06:24:34.180Z,4.32
2018-03-06T06:25:23.218Z,4.30
2018-03-06T06:26:12.263Z,4.43
2018-03-06T06:27:01.309Z,4.56
2018-03-06T06:27:50.590Z,4.69
2018-03-06T06:28:39.734Z,4.93
2018-03-06T06:29:28.776Z,5.09
2018-03-06T06:30:17.817Z,5.24
2018-03-06T06:31:06.865Z,5.27
2018-03-06T06:31:55.900Z,5.26
2018-03-06T06:32:44.945Z,5.42
2018-03-06T06:33:33.989Z,5.44
2018-03-06T06:34:23.086Z,5.46
2018-03-06T06:35:12.132Z,5.55
2018-03-06T06:36:01.179Z,5.68
2018-03-06T06:36:50.231Z,5.75
2018-03-06T06:37:39.281Z,5.79
2018-03-06T06:38:28.482Z,5.89
2018-03-06T06:39:17.544Z,6.07
2018-03-06T06:40:06.636Z,6.16
2018-03-06T06:40:55.685Z,6.24
2018-03-06T06:41:44.973Z,6.34
2018-03-06T06:42:34.013Z,6.24
2018-03-06T06:43:23.060Z,6.23
2018-03-06T06:44:12.162Z,6.25
2018-03-06T06:45:01.262Z,6.23
2018-03-06T06:45:50.362Z,6.10
2018-03-06T06:46:39.418Z,6.04
2018-03-06T06:47:28.452Z,6.09
2018-03-06T06:48:17.592Z,6.22
2018-03-06T06:49:06.625Z,6.40
2018-03-06T06:49:55.667Z,6.46
2018-03-06T06:50:44.707Z,6.54
2018-03-06T06:51:33.765Z,6.62
2018-03-06T06:52:22.808Z,6.64
2018-03-06T06:53:11.850Z,6.71
2018-03-06T06:54:00.918Z,6.75
2018-03-06T06:54:50.170Z,6.78
2018-03-06T06:55:39.222Z,6.73
2018-03-06T06:56:28.252Z,6.68
2018-03-06T06:57:17.291Z,6.52
2018-03-06T06:58:06.318Z,6.31
2018-03-06T06:58:55.354Z,6.09
2018-03-06T06:59:44.691Z,6.03
2018-03-06T07:00:33.776Z,5.81
2018-03-06T07:01:22.828Z,5.88
2018-03-06T07:02:11.918Z,5.99
2018-03-06T07:03:00.989Z,6.09
2018-03-06T07:03:50.225Z,6.13
2018-03-06T07:04:39.286Z,6.14
2018-03-06T07:05:28.325Z,6.22
2018-03-06T07:06:17.362Z,6.37
2018-03-06T07:07:06.400Z,6.40
2018-03-06T07:07:55.443Z,6.29
2018-03-06T07:08:44.538Z,6.26
2018-03-06T07:09:33.611Z,6.14
2018-03-06T07:10:22.716Z,6.13
2018-03-06T07:11:11.903Z,6.13
2018-03-06T07:12:00.953Z,6.12
2018-03-06T07:12:49.990Z,6.14
2018-03-06T07:13:39.026Z,6.19
2018-03-06T07:14:28.064Z,5.84
2018-03-06T07:15:17.094Z,5.97
2018-03-06T07:16:06.134Z,6.00
2018-03-06T07:16:55.649Z,6.03
2018-03-06T07:17:44.682Z,6.08
2018-03-06T07:18:33.765Z,6.03
2018-03-06T07:19:22.796Z,6.04
2018-03-06T07:20:11.826Z,6.08
2018-03-06T07:21:00.853Z,6.12
2018-03-06T07:21:49.894Z,6.10
2018-03-06T07:22:38.922Z,6.11
2018-03-06T07:23:28.016Z,6.05
2018-03-06T07:24:17.102Z,6.03
2018-03-06T07:25:06.155Z,6.08
2018-03-06T07:25:55.201Z,6.10
2018-03-06T07:26:44.238Z,6.04
2018-03-06T07:27:33.275Z,6.06
2018-03-06T07:28:22.406Z,6.04
2018-03-06T07:29:11.450Z,6.09
2018-03-06T07:30:00.480Z,6.05
2018-03-06T07:30:49.598Z,6.07
2018-03-06T07:31:38.625Z,6.11
2018-03-06T07:32:27.655Z,6.11
2018-03-06T07:33:16.683Z,6.23
2018-03-06T07:34:05.809Z,6.36
2018-03-06T07:34:54.843Z,6.55
2018-03-06T07:35:43.955Z,6.61
2018-03-06T07:36:32.978Z,6.74
2018-03-06T07:37:22.012Z,6.41
2018-03-06T07:38:11.256Z,6.21
2018-03-06T07:39:00.282Z,6.26
2018-03-06T07:39:49.346Z,6.17
2018-03-06T07:40:38.378Z,6.32
2018-03-06T07:41:27.412Z,6.34
2018-03-06T07:42:16.437Z,6.39
2018-03-06T07:43:05.468Z,6.22
2018-03-06T07:43:54.548Z,6.32
2018-03-06T07:44:43.607Z,6.38
2018-03-06T07:45:32.735Z,6.43
2018-03-06T07:46:21.760Z,6.45
2018-03-06T07:47:10.785Z,6.43
2018-03-06T07:47:59.812Z,6.53
2018-03-06T07:48:48.971Z,6.58
2018-03-06T07:49:37.995Z,6.55
2018-03-06T07:50:27.021Z,6.49
2018-03-06T07:51:16.151Z,6.58
2018-03-06T07:52:05.177Z,6.70
2018-03-06T07:52:54.213Z,6.77
2018-03-06T07:53:43.247Z,6.78
2018-03-06T07:54:32.278Z,6.84
2018-03-06T07:55:21.311Z,6.96
2018-03-06T07:56:10.395Z,7.07
2018-03-06T07:56:59.434Z,7.12
2018-03-06T07:57:48.459Z,6.77
2018-03-06T07:58:37.480Z,6.63
2018-03-06T07:59:26.533Z,6.81
2018-03-06T08:00:15.559Z,6.83
2018-03-06T08:01:04.618Z,6.87
2018-03-06T08:01:53.638Z,6.95
2018-03-06T08:02:42.718Z,7.07
2018-03-06T08:03:31.747Z,7.18
2018-03-06T08:04:20.763Z,7.27
2018-03-06T08:05:09.862Z,7.32
2018-03-06T08:05:58.898Z,7.42
2018-03-06T08:06:47.926Z,7.44
2018-03-06T08:07:36.953Z,7.52
2018-03-06T08:08:26.253Z,7.57
2018-03-06T08:09:15.284Z,7.62
2018-03-06T08:10:04.351Z,7.38
2018-03-06T08:10:53.590Z,7.46
2018-03-06T08:11:42.680Z,7.58
2018-03-06T08:12:31.727Z,7.61
2018-03-06T08:13:20.760Z,7.71
2018-03-06T08:14:09.790Z,7.70
2018-03-06T08:14:58.838Z,7.68
2018-03-06T08:15:47.866Z,7.39
2018-03-06T08:16:36.926Z,7.44
2018-03-06T08:17:25.950Z,7.46
2018-03-06T08:18:14.982Z,7.59
2018-03-06T08:19:04.011Z,7.82
2018-03-06T08:19:53.040Z,7.50
2018-03-06T08:20:42.266Z,7.24
2018-03-06T08:21:31.300Z,7.41
2018-03-06T08:22:21.064Z,7.59
2018-03-06T08:23:10.094Z,7.76
2018-03-06T08:23:59.199Z,7.76
2018-03-06T08:24:48.247Z,7.89
2018-03-06T08:25:37.271Z,7.83
2018-03-06T08:26:26.411Z,7.97
2018-03-06T08:27:15.443Z,8.11
2018-03-06T08:28:04.463Z,8.22
2018-03-06T08:28:53.493Z,8.34
2018-03-06T08:29:42.529Z,8.52
2018-03-06T08:30:31.558Z,8.62
2018-03-06T08:31:20.595Z,8.74
2018-03-06T08:32:09.672Z,8.68
2018-03-06T08:32:58.866Z,8.71
2018-03-06T08:33:47.903Z,8.51
2018-03-06T08:34:36.950Z,7.91
2018-03-06T08:35:25.979Z,8.09
2018-03-06T08:36:15.031Z,7.58
2018-03-06T08:37:04.061Z,7.36
2018-03-06T08:37:53.141Z,7.21
2018-03-06T08:38:42.166Z,7.31
2018-03-06T08:39:31.202Z,7.21
2018-03-06T08:40:20.235Z,7.20
2018-03-06T08:41:09.262Z,7.26
2018-03-06T08:41:58.293Z,7.14
2018-03-06T08:42:47.327Z,7.26
2018-03-06T08:43:36.504Z,7.14
2018-03-06T08:44:25.558Z,7.04
2018-03-06T08:45:14.593Z,7.14
2018-03-06T08:46:03.625Z,7.19
2018-03-06T08:46:52.657Z,7.17
2018-03-06T08:47:41.701Z,7.19
2018-03-06T08:48:30.838Z,7.18
2018-03-06T08:49:19.871Z,7.07
2018-03-06T08:50:08.901Z,7.08
2018-03-06T08:50:57.930Z,7.12
2018-03-06T08:51:46.969Z,7.12
2018-03-06T08:52:35.993Z,7.16
2018-03-06T08:53:25.016Z,7.21
2018-03-06T08:54:14.107Z,7.26
2018-03-06T08:55:03.139Z,7.29
2018-03-06T08:55:52.168Z,7.31
2018-03-06T08:56:41.199Z,7.33
2018-03-06T08:57:30.279Z,7.38
2018-03-06T08:58:19.356Z,7.25
2018-03-06T08:59:08.394Z,7.30
2018-03-06T08:59:57.419Z,7.37
2018-03-06T09:00:46.454Z,7.39
2018-03-06T09:01:35.515Z,7.53
2018-03-06T09:02:24.593Z,7.53
2018-03-06T09:03:13.656Z,7.64
2018-03-06T09:04:02.702Z,7.71
2018-03-06T09:04:51.745Z,7.75
2018-03-06T09:05:40.788Z,7.87
2018-03-06T09:06:29.815Z,8.08
2018-03-06T09:07:18.843Z,8.29
2018-03-06T09:08:07.962Z,8.33
2018-03-06T09:08:57.001Z,8.25
2018-03-06T09:09:46.034Z,8.21
2018-03-06T09:10:35.060Z,8.41
2018-03-06T09:11:24.086Z,8.35
2018-03-06T09:12:13.178Z,8.42
2018-03-06T09:13:02.208Z,8.63
2018-03-06T09:13:51.275Z,8.86
2018-03-06T09:14:40.301Z,8.94
2018-03-06T09:15:29.340Z,9.19
2018-03-06T09:16:18.360Z,9.39
2018-03-06T09:17:07.399Z,9.56
2018-03-06T09:17:56.443Z,9.81
2018-03-06T09:18:45.471Z,9.94
2018-03-06T09:19:35.630Z,10.06
2018-03-06T09:20:24.661Z,10.10
2018-03-06T09:21:13.704Z,10.16
2018-03-06T09:22:02.729Z,9.90
2018-03-06T09:22:51.760Z,9.62
2018-03-06T09:23:40.786Z,9.58
2018-03-06T09:24:30.110Z,9.64
2018-03-06T09:25:19.137Z,9.69
2018-03-06T09:26:08.174Z,9.63
2018-03-06T09:26:57.204Z,9.80
2018-03-06T09:27:46.233Z,9.94
2018-03-06T09:28:35.263Z,10.07
2018-03-06T09:29:24.300Z,10.16
2018-03-06T09:30:13.396Z,10.38
2018-03-06T09:31:02.434Z,10.47
2018-03-06T09:31:51.463Z,10.66
2018-03-06T09:32:40.518Z,10.89
2018-03-06T09:33:29.549Z,11.00
2018-03-06T09:34:18.631Z,10.75
2018-03-06T09:35:07.664Z,10.77
2018-03-06T09:35:56.707Z,10.93
2018-03-06T09:36:45.775Z,10.99
2018-03-06T09:37:34.807Z,11.09
2018-03-06T09:38:24.083Z,11.32
2018-03-06T09:39:13.114Z,11.38
2018-03-06T09:40:02.279Z,11.47
2018-03-06T09:40:51.335Z,11.46
2018-03-06T09:41:40.406Z,11.56
2018-03-06T09:42:29.456Z,11.82
2018-03-06T09:43:18.491Z,11.88
2018-03-06T09:44:07.523Z,11.35
2018-03-06T09:44:56.561Z,11.62
2018-03-06T09:45:45.882Z,11.76
2018-03-06T09:46:34.932Z,11.62
2018-03-06T09:47:23.970Z,11.06
2018-03-06T09:48:13.032Z,11.23
2018-03-06T09:49:02.113Z,11.62
2018-03-06T09:49:51.200Z,11.67
2018-03-06T09:50:40.262Z,11.86
2018-03-06T09:51:30.021Z,12.06
2018-03-06T09:52:19.080Z,12.13
2018-03-06T09:53:08.168Z,11.67
2018-03-06T09:53:57.244Z,11.48
2018-03-06T09:54:46.274Z,11.36
2018-03-06T09:55:35.504Z,10.80
2018-03-06T09:56:24.536Z,10.92
2018-03-06T09:57:13.576Z,10.82
2018-03-06T09:58:02.609Z,10.74
2018-03-06T09:58:51.647Z,10.81
2018-03-06T09:59:40.775Z,10.88
2018-03-06T10:00:29.814Z,10.82
2018-03-06T10:01:18.857Z,10.79
2018-03-06T10:02:07.883Z,10.80
2018-03-06T10:02:56.916Z,10.73
2018-03-06T10:03:45.954Z,10.80
2018-03-06T10:04:34.992Z,10.73
2018-03-06T10:05:24.066Z,10.69
2018-03-06T10:06:13.115Z,10.70
2018-03-06T10:07:02.168Z,10.84
2018-03-06T10:07:51.225Z,10.84
2018-03-06T10:08:40.260Z,10.73
2018-03-06T10:09:29.304Z,10.59
2018-03-06T10:10:18.341Z,10.77
2018-03-06T10:11:07.467Z,10.90
2018-03-06T10:11:56.513Z,11.05
2018-03-06T10:12:45.555Z,11.14
2018-03-06T10:13:34.592Z,11.12
2018-03-06T10:14:23.639Z,11.11
2018-03-06T10:15:12.675Z,11.12
2018-03-06T10:16:01.713Z,10.99
2018-03-06T10:16:50.844Z,11.05
2018-03-06T10:17:39.906Z,11.07
2018-03-06T10:18:28.929Z,11.16
2018-03-06T10:19:17.976Z,11.26
2018-03-06T10:20:07.005Z,11.38
2018-03-06T10:20:56.047Z,11.56
2018-03-06T10:21:45.081Z,11.65
2018-03-06T10:22:34.171Z,11.54
2018-03-06T10:23:23.227Z,11.59
2018-03-06T10:24:12.282Z,11.74
2018-03-06T10:25:01.316Z,11.80
2018-03-06T10:25:50.358Z,11.94
2018-03-06T10:26:39.393Z,11.97
2018-03-06T10:27:28.426Z,12.05
2018-03-06T10:28:17.502Z,12.12
2018-03-06T10:29:06.530Z,12.16
2018-03-06T10:29:55.571Z,12.21
2018-03-06T10:30:44.602Z,12.11
2018-03-06T10:31:33.647Z,12.19
2018-03-06T10:32:22.678Z,12.21
2018-03-06T10:33:11.724Z,12.19
2018-03-06T10:34:00.901Z,12.21
2018-03-06T10:34:49.913Z,12.09
2018-03-06T10:35:38.947Z,12.22
2018-03-06T10:36:29.061Z,12.38
2018-03-06T10:37:18.084Z,12.54
2018-03-06T10:38:07.145Z,12.57
2018-03-06T10:38:56.176Z,12.56
2018-03-06T10:39:45.710Z,12.61
2018-03-06T10:40:34.774Z,12.81
2018-03-06T10:41:23.863Z,12.93
2018-03-06T10:42:12.903Z,13.00
2018-03-06T10:43:01.947Z,12.97
2018-03-06T10:43:51.020Z,13.01
2018-03-06T10:44:40.034Z,13.02
2018-03-06T10:45:29.070Z,13.08
2018-03-06T10:46:18.177Z,12.96
2018-03-06T10:47:07.207Z,13.02
2018-03-06T10:47:56.260Z,13.13
2018-03-06T10:48:45.281Z,12.91
2018-03-06T10:49:34.365Z,12.86
2018-03-06T10:50:23.482Z,12.85